Time;durP1;ratioP1;P1;durP2;ratioP2;P2;SDS_P1;SDS_P2;PMS_P1;PMS_P2;Temp;Humidity;BMP_temperature;BMP_pressure;BME280_temperature;BME280_humidity;BME280_pressure;Samples;Min_cycle;Max_cycle;Signal;HPM_P1;HPM_P2
2020/12/05 00:00:07;;;;;;;22.90;20.43;;;2.80;99.90;;;;;;5010716;28;20447;-79
2020/12/05 00:02:38;;;;;;;22.77;20.33;;;2.90;99.90;;;;;;5012118;28;20428;-79
2020/12/05 00:05:04;;;;;;;24.53;20.53;;;2.90;99.90;;;;;;5012019;28;20451;-79
2020/12/05 00:07:30;;;;;;;23.80;21.30;;;2.90;99.90;;;;;;5012140;28;20437;-79
2020/12/05 00:09:57;;;;;;;23.00;19.63;;;2.90;99.90;;;;;;5010690;28;20498;-79
2020/12/05 00:12:23;;;;;;;21.57;19.43;;;3.00;99.90;;;;;;5011790;28;20475;-78
2020/12/05 00:14:50;;;;;;;22.90;20.43;;;3.00;99.90;;;;;;5010640;28;20455;-78
2020/12/05 00:17:16;;;;;;;23.87;21.03;;;3.00;99.90;;;;;;5010405;28;20533;-78
2020/12/05 00:19:43;;;;;;;21.90;19.60;;;3.00;99.90;;;;;;5010239;28;20458;-79
2020/12/05 00:22:09;;;;;;;21.97;19.67;;;3.00;99.90;;;;;;5010606;28;20481;-79
2020/12/05 00:24:36;;;;;;;23.60;20.97;;;3.00;99.90;;;;;;5010632;28;20488;-79
2020/12/05 00:27:02;;;;;;;21.77;19.50;;;3.00;99.90;;;;;;5011947;28;20636;-81
2020/12/05 00:29:28;;;;;;;21.70;19.50;;;3.10;99.90;;;;;;5010250;28;20441;-79
2020/12/05 00:31:55;;;;;;;21.03;18.97;;;3.10;99.90;;;;;;5011026;28;20458;-79
2020/12/05 00:34:22;;;;;;;22.57;20.23;;;3.10;99.90;;;;;;5010369;28;20458;-79
2020/12/05 00:36:51;;;;;;;21.37;19.27;;;3.20;99.90;;;;;;5010238;28;20448;-80
2020/12/05 00:39:17;;;;;;;21.40;19.30;;;3.10;99.90;;;;;;5009937;28;20498;-78
2020/12/05 00:41:43;;;;;;;21.83;19.53;;;3.10;99.90;;;;;;5009914;28;20472;-79
2020/12/05 00:44:10;;;;;;;21.13;18.90;;;3.20;99.90;;;;;;5009953;28;20442;-79
2020/12/05 00:46:40;;;;;;;25.63;20.90;;;3.10;99.90;;;;;;5026390;28;20922;-80
2020/12/05 00:49:08;;;;;;;23.53;20.03;;;3.10;99.90;;;;;;5010163;28;20479;-78
2020/12/05 00:51:34;;;;;;;23.67;20.17;;;3.10;99.90;;;;;;5010014;28;20468;-78
2020/12/05 00:54:01;;;;;;;23.17;20.87;;;3.10;99.90;;;;;;5010238;28;20528;-79
2020/12/05 00:56:27;;;;;;;23.33;20.83;;;3.10;99.90;;;;;;5010163;28;20479;-78
2020/12/05 00:58:53;;;;;;;24.23;21.73;;;3.10;99.90;;;;;;5009387;28;20479;-79
2020/12/05 01:01:20;;;;;;;24.37;21.60;;;3.10;99.90;;;;;;5009806;28;20451;-79
2020/12/05 01:03:46;;;;;;;23.03;20.53;;;3.10;99.90;;;;;;5011096;28;20447;-79
2020/12/05 01:06:14;;;;;;;21.97;19.67;;;3.10;99.90;;;;;;5011097;28;20488;-78
2020/12/05 01:08:41;;;;;;;23.23;20.83;;;3.10;99.90;;;;;;5011026;28;20438;-77
2020/12/05 01:11:13;;;;;;;21.70;19.67;;;3.10;99.90;;;;;;5000419;28;20534;-80
2020/12/05 01:13:39;;;;;;;22.50;20.10;;;3.10;99.90;;;;;;5013752;28;20451;-79
2020/12/05 01:16:05;;;;;;;20.80;18.80;;;3.10;99.90;;;;;;4999907;28;20444;-80
2020/12/05 01:18:31;;;;;;;20.33;18.33;;;3.10;99.90;;;;;;5013515;28;20908;-80
2020/12/05 01:20:58;;;;;;;22.73;20.30;;;3.00;99.90;;;;;;5013572;28;20467;-79
2020/12/05 01:23:25;;;;;;;21.03;19.03;;;3.10;99.90;;;;;;5013658;28;20513;-79
2020/12/05 01:25:51;;;;;;;20.40;18.47;;;3.10;99.90;;;;;;5013492;28;20442;-80
2020/12/05 01:28:17;;;;;;;20.73;18.67;;;3.10;99.90;;;;;;5014802;28;20450;-79
2020/12/05 01:30:43;;;;;;;21.23;19.10;;;3.10;99.90;;;;;;5014562;28;20451;-80
2020/12/05 01:33:10;;;;;;;21.03;18.93;;;3.10;99.90;;;;;;5014791;28;20978;-80
2020/12/05 01:35:36;;;;;;;21.23;19.13;;;3.10;99.90;;;;;;5006037;28;20801;-80
2020/12/05 01:38:02;;;;;;;21.67;19.57;;;3.10;99.90;;;;;;5008684;28;20479;-80
2020/12/05 01:40:29;;;;;;;21.53;19.43;;;3.10;99.90;;;;;;5012915;28;20494;-80
2020/12/05 01:42:55;;;;;;;21.43;19.33;;;3.10;99.90;;;;;;5013328;28;20519;-80
2020/12/05 01:45:22;;;;;;;21.10;18.93;;;3.10;99.90;;;;;;5012894;28;20530;-79
2020/12/05 01:47:48;;;;;;;20.63;18.67;;;3.10;99.90;;;;;;5013151;28;20504;-80
2020/12/05 01:50:15;;;;;;;21.47;19.37;;;3.00;99.90;;;;;;5012982;28;20451;-80
2020/12/05 01:52:43;;;;;;;21.80;19.60;;;3.00;99.90;;;;;;5014487;28;20470;-80
2020/12/05 01:55:10;;;;;;;19.50;17.57;;;2.90;99.90;;;;;;5012873;28;20448;-80
2020/12/05 01:57:37;;;;;;;21.40;18.40;;;2.80;99.90;;;;;;5013079;28;20514;-80
2020/12/05 02:00:05;;;;;;;20.30;18.30;;;2.80;99.90;;;;;;5013005;28;20451;-80
2020/12/05 02:02:31;;;;;;;20.73;18.73;;;2.70;99.90;;;;;;5014345;28;20554;-80
2020/12/05 02:05:04;;;;;;;21.43;19.17;;;2.70;99.90;;;;;;5013015;28;20455;-80
2020/12/05 02:07:39;;;;;;;21.83;19.63;;;2.70;99.90;;;;;;5013849;28;20435;-80
2020/12/05 02:10:09;;;;;;;21.60;19.40;;;2.70;99.90;;;;;;5013076;28;20808;-80
2020/12/05 02:12:47;;;;;;;22.00;19.80;;;2.70;99.90;;;;;;5013929;28;20457;-80
2020/12/05 02:15:29;;;;;;;21.97;19.73;;;2.60;99.90;;;;;;5014772;28;20922;-80
2020/12/05 02:18:00;;;;;;;21.33;19.23;;;2.70;99.90;;;;;;5012927;28;20548;-80
2020/12/05 02:20:29;;;;;;;20.50;18.73;;;2.60;99.90;;;;;;5012447;28;20954;-80
2020/12/05 02:22:57;;;;;;;20.57;18.67;;;2.60;99.90;;;;;;5013002;28;20446;-80
2020/12/05 02:25:25;;;;;;;22.20;19.90;;;2.60;99.90;;;;;;5012713;28;20501;-80
2020/12/05 02:27:51;;;;;;;21.93;19.87;;;2.60;99.90;;;;;;5013740;28;20494;-80
2020/12/05 02:30:17;;;;;;;20.50;18.43;;;2.60;99.90;;;;;;5012028;28;20496;-80
2020/12/05 02:32:44;;;;;;;21.47;19.50;;;2.50;99.90;;;;;;5011652;28;20506;-80
2020/12/05 02:35:10;;;;;;;23.07;20.83;;;2.50;99.90;;;;;;5012230;28;20438;-80
2020/12/05 02:37:41;;;;;;;22.00;19.93;;;2.50;99.90;;;;;;5012193;28;20457;-79
2020/12/05 02:40:10;;;;;;;19.97;18.10;;;2.50;99.90;;;;;;5013255;28;20988;-80
2020/12/05 02:42:37;;;;;;;20.00;18.13;;;2.50;99.90;;;;;;5012490;28;20522;-80
2020/12/05 02:45:10;;;;;;;19.87;17.97;;;2.40;99.90;;;;;;5013388;28;20487;-80
2020/12/05 02:47:36;;;;;;;20.83;18.80;;;2.40;99.90;;;;;;5012039;28;21016;-80
2020/12/05 02:50:03;;;;;;;20.83;18.83;;;2.30;99.90;;;;;;5013435;28;20436;-80
2020/12/05 02:52:29;;;;;;;19.97;17.97;;;2.30;99.90;;;;;;5013164;28;20487;-78
2020/12/05 02:54:56;;;;;;;19.63;17.83;;;2.30;99.90;;;;;;5011884;28;20497;-80
2020/12/05 02:57:22;;;;;;;19.67;17.90;;;2.30;99.90;;;;;;5011614;28;20453;-80
2020/12/05 02:59:49;;;;;;;20.67;18.77;;;2.30;99.90;;;;;;5012946;28;20883;-79
2020/12/05 03:02:15;;;;;;;20.07;18.10;;;2.30;99.90;;;;;;5012984;28;20448;-80
2020/12/05 03:04:41;;;;;;;19.80;17.90;;;2.30;99.90;;;;;;5011640;28;20444;-79
2020/12/05 03:07:08;;;;;;;20.27;18.57;;;2.30;99.90;;;;;;5011437;28;20495;-80
2020/12/05 03:09:34;;;;;;;21.73;19.67;;;2.30;99.90;;;;;;5011518;28;20440;-80
2020/12/05 03:12:01;;;;;;;20.80;19.00;;;2.30;99.90;;;;;;5011401;28;20470;-80
2020/12/05 03:14:27;;;;;;;21.37;19.23;;;2.30;99.90;;;;;;5011382;28;20455;-80
2020/12/05 03:16:54;;;;;;;20.93;19.07;;;2.30;99.90;;;;;;5012639;28;20791;-80
2020/12/05 03:19:21;;;;;;;21.57;19.77;;;2.30;99.90;;;;;;5012479;28;20540;-80
2020/12/05 03:21:47;;;;;;;21.03;19.23;;;2.30;99.90;;;;;;5011811;28;20460;-80
2020/12/05 03:24:13;;;;;;;21.20;19.43;;;2.30;99.90;;;;;;5011301;28;20499;-80
2020/12/05 03:26:40;;;;;;;20.70;18.83;;;2.30;99.90;;;;;;5011112;28;20447;-80
2020/12/05 03:29:06;;;;;;;20.87;19.07;;;2.20;99.90;;;;;;5012712;28;20949;-80
2020/12/05 03:34:19;;;;;;;20.03;18.27;;;2.30;99.90;;;;;;5007269;28;20445;-79
2020/12/05 03:36:46;;;;;;;20.67;18.93;;;2.30;99.90;;;;;;5011867;28;20448;-79
2020/12/05 03:39:12;;;;;;;20.27;18.47;;;2.30;99.90;;;;;;5011400;28;20478;-78
2020/12/05 03:41:39;;;;;;;21.30;19.30;;;2.30;99.90;;;;;;5018360;28;20504;-79
2020/12/05 03:44:05;;;;;;;19.37;17.67;;;2.30;99.90;;;;;;5021609;28;20956;-78
2020/12/05 03:46:31;;;;;;;20.40;18.40;;;2.40;99.90;;;;;;5015897;28;20459;-79
2020/12/05 03:48:59;;;;;;;18.60;17.10;;;2.30;99.90;;;;;;5013699;28;20445;-78
2020/12/05 03:51:26;;;;;;;20.03;18.40;;;2.30;99.90;;;;;;5011101;28;20463;-78
2020/12/05 03:53:53;;;;;;;19.67;18.00;;;2.30;99.90;;;;;;5012697;28;20439;-79
2020/12/05 03:56:19;;;;;;;19.67;18.07;;;2.40;99.90;;;;;;5012774;28;21042;-78
2020/12/05 03:58:45;;;;;;;19.37;17.77;;;2.40;99.90;;;;;;4998884;28;20479;-78
2020/12/05 04:01:12;;;;;;;17.77;16.27;;;2.40;99.90;;;;;;5015573;28;20528;-79
2020/12/05 04:03:38;;;;;;;18.47;16.80;;;2.40;99.90;;;;;;5004239;28;20461;-80
2020/12/05 04:06:04;;;;;;;18.17;16.63;;;2.50;99.90;;;;;;5003023;28;20510;-79
2020/12/05 04:08:31;;;;;;;17.40;16.10;;;2.50;99.90;;;;;;5000012;28;20445;-79
2020/12/05 04:10:58;;;;;;;17.47;16.13;;;2.60;99.90;;;;;;5004253;28;20540;-80
2020/12/05 04:13:24;;;;;;;17.13;15.83;;;2.60;99.90;;;;;;5005929;28;20529;-79
2020/12/05 04:15:50;;;;;;;16.53;15.20;;;2.60;99.90;;;;;;5006000;28;20453;-79
2020/12/05 04:18:16;;;;;;;16.83;15.53;;;2.60;99.90;;;;;;5010992;28;20475;-79
2020/12/05 04:20:43;;;;;;;17.30;16.00;;;2.60;99.90;;;;;;5009841;28;20472;-80
2020/12/05 04:23:09;;;;;;;16.50;15.27;;;2.70;99.90;;;;;;5011015;28;20514;-79
2020/12/05 04:25:36;;;;;;;17.80;16.40;;;2.70;99.90;;;;;;5009078;28;20919;-79
2020/12/05 04:28:03;;;;;;;17.23;15.87;;;2.70;99.90;;;;;;5009725;28;20935;-80
2020/12/05 04:30:29;;;;;;;17.60;16.30;;;2.80;99.90;;;;;;5007455;28;20498;-79
2020/12/05 04:32:55;;;;;;;17.60;16.20;;;2.80;99.90;;;;;;5012552;28;20448;-79
2020/12/05 04:35:22;;;;;;;17.60;16.20;;;2.80;99.90;;;;;;4994704;28;20449;-79
2020/12/05 04:37:48;;;;;;;17.10;15.80;;;2.80;99.90;;;;;;4998253;28;20477;-80
2020/12/05 04:40:14;;;;;;;17.53;16.13;;;2.80;99.90;;;;;;4998150;28;20858;-78
2020/12/05 04:42:45;;;;;;;16.93;15.63;;;2.80;99.90;;;;;;4998298;28;20464;-79
2020/12/05 04:45:12;;;;;;;16.97;15.67;;;2.80;99.90;;;;;;5011179;28;20445;-80
2020/12/05 04:47:40;;;;;;;17.07;15.77;;;2.70;99.90;;;;;;4999740;28;20810;-80
2020/12/05 04:50:08;;;;;;;16.20;15.00;;;2.70;99.90;;;;;;5014007;28;20475;-80
2020/12/05 04:52:46;;;;;;;17.03;15.73;;;2.70;99.90;;;;;;5014838;28;20459;-80
2020/12/05 04:55:14;;;;;;;17.70;16.40;;;2.80;99.90;;;;;;5014994;28;20813;-80
2020/12/05 04:57:46;;;;;;;16.90;15.60;;;2.80;99.90;;;;;;5002539;28;20477;-79
2020/12/05 05:00:12;;;;;;;17.27;15.97;;;2.80;99.90;;;;;;5001482;28;20479;-80
2020/12/05 05:02:41;;;;;;;17.10;15.90;;;2.80;99.90;;;;;;4996984;28;20481;-80
2020/12/05 05:05:09;;;;;;;17.37;16.03;;;2.80;99.90;;;;;;4999763;28;20451;-79
2020/12/05 05:07:46;;;;;;;18.13;16.73;;;2.80;99.90;;;;;;5014140;28;20487;-80
2020/12/05 05:10:17;;;;;;;17.53;16.13;;;2.80;99.90;;;;;;5007318;28;20440;-79
2020/12/05 05:12:44;;;;;;;18.80;17.30;;;2.80;99.90;;;;;;5009126;28;20466;-79
2020/12/05 05:15:20;;;;;;;18.00;16.63;;;2.80;99.90;;;;;;5004635;28;20436;-80
2020/12/05 05:17:48;;;;;;;19.37;17.73;;;2.80;99.90;;;;;;4997146;28;20980;-79
2020/12/05 05:20:19;;;;;;;17.90;16.50;;;2.80;99.90;;;;;;4999001;28;20490;-79
2020/12/05 05:22:46;;;;;;;18.77;17.23;;;2.80;99.90;;;;;;4995507;28;20451;-80
2020/12/05 05:25:13;;;;;;;20.50;18.70;;;2.80;99.90;;;;;;4996555;28;20507;-80
2020/12/05 05:27:39;;;;;;;20.63;18.73;;;2.80;99.90;;;;;;5014474;28;20508;-79
2020/12/05 05:30:09;;;;;;;19.37;17.67;;;2.80;99.90;;;;;;5012344;28;20444;-79
2020/12/05 05:32:44;;;;;;;20.43;18.73;;;2.80;99.90;;;;;;5012293;28;20874;-79
2020/12/05 05:35:12;;;;;;;19.77;18.07;;;2.80;99.90;;;;;;5012498;28;20443;-79
2020/12/05 05:37:40;;;;;;;21.13;19.30;;;2.80;99.90;;;;;;5010906;28;20527;-78
2020/12/05 05:40:08;;;;;;;20.63;18.73;;;2.80;99.90;;;;;;5006939;28;20485;-79
2020/12/05 05:42:36;;;;;;;20.80;19.10;;;2.70;99.90;;;;;;5006531;28;21007;-78
2020/12/05 05:45:17;;;;;;;20.97;19.20;;;2.80;99.90;;;;;;5009789;28;20637;-78
2020/12/05 05:47:44;;;;;;;20.77;18.97;;;2.70;99.90;;;;;;5005771;28;20428;-79
2020/12/05 05:50:21;;;;;;;20.13;18.43;;;2.70;99.90;;;;;;4999149;28;20448;-79
2020/12/05 05:52:53;;;;;;;20.27;18.57;;;2.70;99.90;;;;;;4999742;28;20475;-79
2020/12/05 05:55:20;;;;;;;20.03;18.43;;;2.70;99.90;;;;;;5007515;28;20439;-78
2020/12/05 05:57:46;;;;;;;21.37;19.50;;;2.70;99.90;;;;;;5013267;28;20436;-79
2020/12/05 06:00:14;;;;;;;20.40;18.57;;;2.70;99.90;;;;;;5011030;28;20483;-78
2020/12/05 06:02:52;;;;;;;19.67;18.07;;;2.60;99.90;;;;;;5005867;28;20448;-79
2020/12/05 06:05:27;;;;;;;20.70;18.90;;;2.60;99.90;;;;;;5006380;28;20478;-78
2020/12/05 06:07:55;;;;;;;20.93;19.13;;;2.60;99.90;;;;;;5014682;28;20532;-78
2020/12/05 06:10:22;;;;;;;19.83;18.10;;;2.60;99.90;;;;;;5006212;28;20439;-79
2020/12/05 06:12:51;;;;;;;20.70;18.77;;;2.60;99.90;;;;;;4998915;28;20455;-78
2020/12/05 06:15:18;;;;;;;20.63;18.83;;;2.60;99.90;;;;;;5012365;28;20439;-79
2020/12/05 06:17:46;;;;;;;20.23;18.53;;;2.60;99.90;;;;;;4995988;28;20449;-80
2020/12/05 06:20:14;;;;;;;21.27;19.47;;;2.60;99.90;;;;;;5008673;28;21004;-80
2020/12/05 06:22:48;;;;;;;20.33;18.53;;;2.60;99.90;;;;;;5009388;28;20459;-78
2020/12/05 06:25:17;;;;;;;19.60;17.90;;;2.60;99.90;;;;;;5007655;28;20521;-80
2020/12/05 06:27:46;;;;;;;19.37;17.67;;;2.70;99.90;;;;;;5007165;28;20466;-80
2020/12/05 06:30:13;;;;;;;19.00;17.50;;;2.60;99.90;;;;;;4998958;28;20449;-80
2020/12/05 06:32:42;;;;;;;20.93;19.17;;;2.60;99.90;;;;;;5002957;28;20436;-80
2020/12/05 06:35:34;;;;;;;19.83;18.23;;;2.60;99.90;;;;;;4996422;28;20452;-81
2020/12/05 06:38:02;;;;;;;20.13;18.53;;;2.60;99.90;;;;;;5001718;28;20894;-78
2020/12/05 06:40:28;;;;;;;19.67;18.03;;;2.70;99.90;;;;;;5012067;28;20475;-79
2020/12/05 06:42:56;;;;;;;18.53;17.03;;;2.60;99.90;;;;;;5011018;28;20455;-79
2020/12/05 06:45:39;;;;;;;18.67;17.07;;;2.60;99.90;;;;;;5011960;28;20450;-79
2020/12/05 06:48:29;;;;;;;20.70;19.10;;;2.70;99.90;;;;;;5005669;28;20505;-78
2020/12/05 06:50:57;;;;;;;18.97;17.50;;;2.60;99.90;;;;;;5005855;28;21004;-78
2020/12/05 06:53:33;;;;;;;19.10;17.53;;;2.60;99.90;;;;;;5007794;28;20825;-77
2020/12/05 06:56:14;;;;;;;19.53;17.93;;;2.60;99.90;;;;;;5010829;28;20502;-78
2020/12/05 06:58:41;;;;;;;19.27;17.50;;;2.60;99.90;;;;;;5005985;28;20505;-78
2020/12/05 07:01:07;;;;;;;18.37;16.97;;;2.60;99.90;;;;;;5005425;28;20549;-78
2020/12/05 07:03:33;;;;;;;17.90;16.60;;;2.50;99.90;;;;;;5005212;28;20452;-78
2020/12/05 07:06:00;;;;;;;18.70;17.03;;;2.60;99.90;;;;;;5005659;28;20454;-78
2020/12/05 07:08:33;;;;;;;18.20;16.63;;;2.60;99.90;;;;;;5014560;28;20498;-78
2020/12/05 07:11:01;;;;;;;18.20;16.80;;;2.60;99.90;;;;;;5001359;28;20478;-78
2020/12/05 07:13:39;;;;;;;17.13;15.93;;;2.50;99.90;;;;;;5000898;28;20479;-78
2020/12/05 07:16:09;;;;;;;19.87;18.17;;;2.50;99.90;;;;;;4996761;28;20445;-78
2020/12/05 07:18:39;;;;;;;18.97;17.37;;;2.40;99.90;;;;;;4998254;28;20534;-78
2020/12/05 07:21:07;;;;;;;18.13;16.73;;;2.40;99.90;;;;;;5014152;28;20464;-78
2020/12/05 07:23:34;;;;;;;19.63;17.97;;;2.40;99.90;;;;;;4999974;28;20483;-78
2020/12/05 07:26:02;;;;;;;18.37;16.87;;;2.40;99.90;;;;;;5012386;28;20463;-78
2020/12/05 07:28:28;;;;;;;17.77;16.37;;;2.40;99.90;;;;;;5009698;28;20447;-77
2020/12/05 07:30:54;;;;;;;18.70;17.10;;;2.40;99.90;;;;;;5011371;28;20798;-78
2020/12/05 07:33:22;;;;;;;17.33;16.00;;;2.40;99.90;;;;;;5011368;28;20446;-78
2020/12/05 07:35:59;;;;;;;17.47;16.17;;;2.40;99.90;;;;;;5008270;28;20464;-78
2020/12/05 07:38:28;;;;;;;16.60;15.40;;;2.40;99.90;;;;;;5003404;28;20443;-75
2020/12/05 07:40:54;;;;;;;16.97;15.67;;;2.40;99.90;;;;;;5002150;28;20800;-75
2020/12/05 07:43:21;;;;;;;17.63;16.10;;;2.40;99.90;;;;;;4998009;28;20518;-78
2020/12/05 07:45:49;;;;;;;16.83;15.53;;;2.40;99.90;;;;;;4999673;28;20494;-78
2020/12/05 07:48:17;;;;;;;18.20;16.80;;;2.40;99.90;;;;;;4998536;28;21038;-80
2020/12/05 07:50:44;;;;;;;17.27;15.97;;;2.50;99.90;;;;;;5010874;28;20549;-80
2020/12/05 07:53:32;;;;;;;17.60;16.20;;;2.50;99.90;;;;;;4998993;28;20510;-79
2020/12/05 07:56:14;;;;;;;16.70;15.40;;;2.50;99.90;;;;;;5013441;28;20509;-80
2020/12/05 07:58:46;;;;;;;18.50;17.00;;;2.60;99.90;;;;;;5002862;28;20471;-81
2020/12/05 08:01:44;;;;;;;18.67;17.17;;;2.60;99.90;;;;;;5005141;28;20467;-80
2020/12/05 08:04:41;;;;;;;17.93;16.53;;;2.70;99.90;;;;;;5005727;28;20463;-81
2020/12/05 08:07:23;;;;;;;17.17;15.77;;;2.70;99.90;;;;;;4998627;28;20538;-80
2020/12/05 08:09:51;;;;;;;17.77;16.33;;;2.70;99.90;;;;;;5022338;28;20454;-82
2020/12/05 08:12:34;;;;;;;17.83;16.43;;;2.80;99.90;;;;;;5049143;22;21002;-78
2020/12/05 08:15:01;;;;;;;18.13;16.73;;;2.80;99.90;;;;;;5031037;28;20870;-77
2020/12/05 08:17:27;;;;;;;18.73;17.13;;;2.90;99.90;;;;;;5029893;28;20512;-78
2020/12/05 08:19:54;;;;;;;19.43;17.73;;;2.90;99.90;;;;;;5029574;28;20478;-78
2020/12/05 08:22:20;;;;;;;19.40;17.80;;;2.90;99.90;;;;;;5023961;28;20467;-77
2020/12/05 08:24:50;;;;;;;18.73;17.03;;;3.00;99.90;;;;;;5011106;28;20530;-77
2020/12/05 08:27:19;;;;;;;19.33;17.83;;;3.00;99.90;;;;;;5010481;28;20439;-77
2020/12/05 08:29:48;;;;;;;19.50;17.80;;;3.00;99.90;;;;;;5009767;28;21025;-77
2020/12/05 08:32:17;;;;;;;18.57;17.07;;;3.10;99.90;;;;;;5014872;28;20890;-78
2020/12/05 08:34:43;;;;;;;18.07;16.67;;;3.10;99.90;;;;;;5012351;28;20448;-78
2020/12/05 08:37:17;;;;;;;18.70;17.20;;;3.20;99.90;;;;;;5019285;28;20821;-78
2020/12/05 08:39:46;;;;;;;18.50;17.10;;;3.20;99.90;;;;;;5010974;28;20514;-80
2020/12/05 08:42:13;;;;;;;19.47;17.80;;;3.20;99.90;;;;;;5015219;28;20513;-79
2020/12/05 08:44:40;;;;;;;17.57;16.27;;;3.20;99.90;;;;;;5016903;28;20453;-79
2020/12/05 08:47:07;;;;;;;18.00;16.57;;;3.30;99.90;;;;;;5011973;28;20530;-80
2020/12/05 08:49:38;;;;;;;17.77;16.37;;;3.40;99.90;;;;;;5010520;28;20447;-80
2020/12/05 08:52:05;;;;;;;18.53;16.93;;;3.40;99.90;;;;;;5012649;28;20509;-79
2020/12/05 08:54:32;;;;;;;19.43;17.73;;;3.40;99.90;;;;;;5013168;28;20441;-77
2020/12/05 08:57:06;;;;;;;17.50;16.00;;;3.40;99.90;;;;;;5028160;28;20502;-78
2020/12/05 08:59:33;;;;;;;19.53;17.83;;;3.50;99.90;;;;;;5014310;28;20496;-77
2020/12/05 09:02:00;;;;;;;18.20;16.90;;;3.50;99.90;;;;;;5010948;28;20497;-78
2020/12/05 09:04:28;;;;;;;17.03;15.70;;;3.60;99.90;;;;;;5009762;28;21141;-78
2020/12/05 09:06:54;;;;;;;17.23;15.93;;;3.60;99.90;;;;;;5020167;28;20543;-78
2020/12/05 09:09:28;;;;;;;17.53;16.10;;;3.60;99.90;;;;;;5026213;28;20513;-78
2020/12/05 09:12:02;;;;;;;18.63;17.17;;;3.60;99.90;;;;;;5010944;28;20485;-78
2020/12/05 09:14:28;;;;;;;18.00;16.40;;;3.60;99.90;;;;;;5026164;28;20972;-78
2020/12/05 09:16:55;;;;;;;17.60;16.20;;;3.50;99.90;;;;;;5010046;28;21065;-78
2020/12/05 09:19:24;;;;;;;17.47;16.07;;;3.60;99.90;;;;;;5010970;28;20548;-77
2020/12/05 09:21:50;;;;;;;17.17;15.87;;;3.60;99.90;;;;;;5010713;28;20537;-79
2020/12/05 09:24:16;;;;;;;18.73;17.23;;;3.70;99.90;;;;;;5010420;28;20454;-79
2020/12/05 09:26:54;;;;;;;18.63;17.17;;;3.70;99.90;;;;;;5009967;28;21005;-79
2020/12/05 09:29:20;;;;;;;17.90;16.60;;;3.80;99.90;;;;;;5008956;28;20462;-78
2020/12/05 09:31:51;;;;;;;18.37;16.77;;;3.90;99.90;;;;;;5011804;28;20466;-77
2020/12/05 09:34:31;;;;;;;18.13;16.73;;;4.00;99.90;;;;;;5016154;28;21109;-77
2020/12/05 09:36:57;;;;;;;17.80;16.40;;;4.00;99.90;;;;;;5013625;28;20500;-77
2020/12/05 09:39:24;;;;;;;18.53;17.03;;;4.00;99.90;;;;;;5011535;28;20470;-78
2020/12/05 09:41:50;;;;;;;18.30;16.87;;;4.00;99.90;;;;;;5018329;28;20452;-78
2020/12/05 09:44:17;;;;;;;19.10;17.60;;;4.00;99.90;;;;;;5030093;28;20490;-78
2020/12/05 09:46:43;;;;;;;17.47;16.17;;;4.00;99.90;;;;;;5020064;28;20536;-78
2020/12/05 09:49:09;;;;;;;16.97;15.63;;;4.10;99.90;;;;;;5022165;28;20442;-78
2020/12/05 09:51:37;;;;;;;17.20;15.90;;;4.00;99.90;;;;;;5010902;28;21414;-77
2020/12/05 09:54:03;;;;;;;18.10;16.70;;;4.10;99.90;;;;;;5015559;28;20454;-77
2020/12/05 09:56:30;;;;;;;19.00;17.50;;;4.10;99.90;;;;;;5026311;28;20435;-78
2020/12/05 09:58:56;;;;;;;18.07;16.63;;;4.10;99.90;;;;;;5022316;28;20474;-77
2020/12/05 10:01:22;;;;;;;18.33;16.83;;;4.10;99.90;;;;;;5019451;28;20227;-77
2020/12/05 10:03:48;;;;;;;17.97;16.57;;;4.20;99.90;;;;;;5021652;28;20471;-78
2020/12/05 10:06:17;;;;;;;17.93;16.60;;;4.20;99.90;;;;;;5024335;28;20450;-78
2020/12/05 10:08:44;;;;;;;16.47;15.27;;;4.20;99.90;;;;;;5021002;28;20450;-77
2020/12/05 10:11:11;;;;;;;17.57;16.27;;;4.30;99.90;;;;;;5017395;28;21052;-77
2020/12/05 10:13:37;;;;;;;18.60;17.20;;;4.20;99.90;;;;;;5023498;28;20443;-78
2020/12/05 10:16:03;;;;;;;16.97;15.77;;;4.20;99.90;;;;;;5012000;28;20458;-76
2020/12/05 10:18:29;;;;;;;18.87;17.30;;;4.20;99.90;;;;;;5021317;28;20439;-78
2020/12/05 10:20:55;;;;;;;19.43;17.73;;;4.20;99.90;;;;;;5024570;28;20482;-79
2020/12/05 10:23:22;;;;;;;19.47;17.87;;;4.20;99.90;;;;;;5037533;28;21005;-79
2020/12/05 10:25:49;;;;;;;20.37;18.60;;;4.20;99.90;;;;;;5019361;28;20460;-79
2020/12/05 10:28:15;;;;;;;20.43;18.63;;;4.20;99.90;;;;;;5035098;28;20462;-79
2020/12/05 10:30:41;;;;;;;23.10;20.90;;;4.10;99.90;;;;;;5018225;28;20441;-77
2020/12/05 10:33:08;;;;;;;25.00;22.50;;;4.00;99.90;;;;;;5014753;28;20534;-77
2020/12/05 10:35:34;;;;;;;24.27;21.70;;;3.90;99.90;;;;;;5011663;28;20528;-77
2020/12/05 10:38:00;;;;;;;24.30;21.27;;;3.80;99.90;;;;;;5018878;28;20509;-78
2020/12/05 10:40:28;;;;;;;24.20;21.73;;;3.80;99.90;;;;;;5012176;28;20505;-77
2020/12/05 10:42:55;;;;;;;24.63;21.83;;;3.80;99.90;;;;;;5023882;28;20552;-78
2020/12/05 10:45:22;;;;;;;23.67;21.37;;;3.80;99.90;;;;;;5020120;28;20473;-77
2020/12/05 10:47:48;;;;;;;22.93;20.87;;;3.80;99.90;;;;;;5021563;28;20467;-77
2020/12/05 10:50:14;;;;;;;24.37;22.13;;;3.80;99.90;;;;;;5011659;28;20503;-77
2020/12/05 10:52:41;;;;;;;24.67;22.17;;;3.70;99.90;;;;;;5013597;28;20464;-78
2020/12/05 10:55:07;;;;;;;24.53;22.07;;;3.80;99.90;;;;;;5012425;28;20514;-78
2020/12/05 10:57:33;;;;;;;23.00;20.90;;;3.70;99.90;;;;;;5012671;28;20439;-77
2020/12/05 11:00:00;;;;;;;24.17;21.97;;;3.70;99.90;;;;;;5013204;28;20899;-78
2020/12/05 11:02:27;;;;;;;22.73;20.53;;;3.70;99.90;;;;;;5013388;28;20466;-77
2020/12/05 11:04:53;;;;;;;22.37;20.47;;;3.70;99.90;;;;;;5013435;28;20449;-76
2020/12/05 11:07:19;;;;;;;23.30;21.13;;;3.70;99.90;;;;;;5012216;28;20438;-77
2020/12/05 11:09:45;;;;;;;22.37;20.37;;;3.70;99.90;;;;;;5012665;28;20432;-77
2020/12/05 11:12:12;;;;;;;21.70;19.80;;;3.70;99.90;;;;;;5021978;28;20537;-77
2020/12/05 11:14:38;;;;;;;21.47;19.67;;;3.80;99.90;;;;;;5017194;28;20435;-77
2020/12/05 11:17:05;;;;;;;21.50;19.70;;;3.90;99.90;;;;;;5018140;28;20504;-77
2020/12/05 11:19:31;;;;;;;21.70;19.80;;;3.90;99.90;;;;;;5011901;28;21105;-78
2020/12/05 11:21:58;;;;;;;22.17;20.27;;;3.90;99.90;;;;;;5019623;28;20461;-77
2020/12/05 11:24:24;;;;;;;21.30;19.43;;;3.90;99.90;;;;;;5012689;28;20441;-77
2020/12/05 11:26:50;;;;;;;21.80;19.63;;;3.90;99.90;;;;;;5012773;28;20540;-76
2020/12/05 11:29:17;;;;;;;21.93;20.03;;;4.00;99.90;;;;;;5012258;28;20458;-77
2020/12/05 11:31:43;;;;;;;21.40;19.63;;;4.00;99.90;;;;;;5013307;28;20522;-78
2020/12/05 11:34:10;;;;;;;21.63;19.80;;;4.10;99.90;;;;;;5011395;28;20444;-78
2020/12/05 11:36:36;;;;;;;21.53;19.83;;;4.10;99.90;;;;;;5012285;28;20513;-75
2020/12/05 11:39:03;;;;;;;22.00;20.23;;;4.10;99.90;;;;;;5010854;28;20538;-77
2020/12/05 11:41:29;;;;;;;22.57;20.57;;;4.10;99.90;;;;;;5010824;28;20474;-77
2020/12/05 11:43:55;;;;;;;20.93;19.23;;;4.20;99.90;;;;;;5011808;28;20439;-78
2020/12/05 11:46:21;;;;;;;22.77;20.87;;;4.20;99.90;;;;;;5014615;28;20526;-80
2020/12/05 11:48:48;;;;;;;21.40;19.60;;;4.20;99.90;;;;;;5031765;28;20439;-79
2020/12/05 11:51:16;;;;;;;21.73;20.03;;;4.20;99.90;;;;;;5015000;28;20534;-79
2020/12/05 11:53:42;;;;;;;21.43;19.67;;;4.20;99.90;;;;;;5011999;28;20455;-79
2020/12/05 11:56:08;;;;;;;20.33;18.73;;;4.20;99.90;;;;;;5011707;28;20473;-80
2020/12/05 11:58:37;;;;;;;20.60;18.80;;;4.30;99.90;;;;;;5014437;28;20718;-80
2020/12/05 12:01:03;;;;;;;21.87;20.07;;;4.30;99.90;;;;;;5016397;28;20486;-79
2020/12/05 12:03:29;;;;;;;21.60;19.73;;;4.30;99.90;;;;;;5012064;28;20443;-80
2020/12/05 12:05:56;;;;;;;21.37;19.57;;;4.30;99.90;;;;;;5011000;28;20531;-79
2020/12/05 12:08:23;;;;;;;21.77;19.97;;;4.30;99.90;;;;;;5012052;28;20506;-79
2020/12/05 12:10:49;;;;;;;22.60;20.67;;;4.30;99.90;;;;;;5026750;28;20446;-79
2020/12/05 12:13:15;;;;;;;21.40;19.63;;;4.30;99.90;;;;;;5028471;28;20856;-79
2020/12/05 12:15:41;;;;;;;22.37;20.47;;;4.30;99.90;;;;;;5010948;28;20460;-79
2020/12/05 12:18:08;;;;;;;23.20;21.27;;;4.30;99.90;;;;;;5019300;28;20992;-77
2020/12/05 12:20:34;;;;;;;22.87;20.87;;;4.40;99.90;;;;;;5015163;28;20517;-77
2020/12/05 12:23:00;;;;;;;22.30;20.40;;;4.30;99.90;;;;;;5017277;28;21026;-79
2020/12/05 12:25:27;;;;;;;21.53;19.67;;;4.30;99.90;;;;;;5013253;28;20443;-77
2020/12/05 12:27:54;;;;;;;21.57;19.77;;;4.30;99.90;;;;;;5009626;28;20459;-76
2020/12/05 12:30:20;;;;;;;21.30;19.50;;;4.30;99.90;;;;;;5013695;28;20446;-79
2020/12/05 12:32:46;;;;;;;21.70;19.80;;;4.30;99.90;;;;;;5021491;28;20471;-78
2020/12/05 12:35:13;;;;;;;21.93;20.03;;;4.30;99.90;;;;;;5016598;28;20481;-78
2020/12/05 12:37:39;;;;;;;21.23;19.43;;;4.30;99.90;;;;;;5019144;28;20900;-77
2020/12/05 12:40:05;;;;;;;22.33;20.33;;;4.30;99.90;;;;;;5011072;28;20998;-77
2020/12/05 12:42:32;;;;;;;21.80;20.10;;;4.40;99.90;;;;;;5010283;28;20568;-77